Zakirovskiy Airport

Jump to: basic info | weather | comments

Related pages: nearby airports | nearby navaids

Basic information (top)

Location: lon 43.448002, lat 77.049599, elev 2,038 ft / 621 m msl
Status: small_airport

Weather (top)

Current conditions for Almaty Airport 6nm (11km) S (rec'd 2015/03/29 19:00Z):

UAAA 291900Z 29005MPS 1000 R23R/P2000D R23L/P2000 SN BR BKN007 OVC027 M06/M08 Q1021 R88/4/1034 NOSIG

Airport forecast for Almaty Airport 6nm (11km) S (rec'd 2015/03/29 18:18Z):

TAF TAF UAAA 291700Z 2918/3018 30007MPS 1200 SHSN BR BKN004 OVC010CB TXM06/3006Z TNM10/3001Z 
      TEMPO 2918/3005 0400 SN FZFG VV002 
      BECMG 3005/3006 3000 SN BR OVC010 
      TEMPO 3012/3018 0300 FZFG VV002

Latest comments (top)

No comments yet for Zakirovskiy Airport

More... (top)

See also NOTAMs and nearby airports and navaids, or visit the Zakirovskiy Airport page at the main OurAirports website..